Home > Products > Valid Products > TAF

000
FTUS45 KMSO 071121
TAFSMN
TAF
KSMN 071121Z 0712/0812 VRB05KT P6SM SCT150
      AMD LTD TO CLD VIS AND WIND=



000
FTUS45 KMSO 071121
TAFGPI
TAF
KGPI 071121Z 0712/0812 VRB03KT P6SM FEW150
     FM071400 00000KT P6SM VCFG FEW004 SCT100
     FM071800 19003KT P6SM BKN050=



000
FTUS45 KMSO 071121
TAFBTM
TAF
KBTM 071121Z 0712/0812 VRB04KT P6SM SCT150=



000
FTUS45 KMSO 071121
TAFMSO
TAF
KMSO 071121Z 0712/0812 34006KT P6SM FEW150
     FM071400 VRB03KT P6SM VCFG FEW005 SCT100
     FM071800 VRB03KT P6SM SCT050 BKN100=



000
FTUS45 KMSO 070532
TAFBTM
TAF
KBTM 070532Z 0706/0806 34006KT P6SM OVC060
     FM071200 VRB04KT P6SM SCT050 BKN120
     FM071800 35005KT P6SM BKN150=



000
FTUS45 KMSO 070532
TAFSMN
TAF
KSMN 070532Z 0706/0806 VRB05KT P6SM OVC110
     FM071200 00000KT P6SM SCT150
      AMD LTD TO CLD VIS AND WIND=



000
FTUS45 KMSO 070532
TAFMSO
TAF
KMSO 070532Z 0706/0806 34006KT P6SM OVC060
     FM071200 VRB03KT P6SM VCFG SCT005 BKN050
     FM071800 VRB03KT P6SM SCT050 BKN100=



000
FTUS45 KMSO 070532
TAFGPI
TAF
KGPI 070532Z 0706/0806 17005KT P6SM FEW080
     FM071000 19003KT P6SM VCFG SCT005 OVC100
     FM071800 19003KT P6SM BKN050=



000
FTUS45 KMSO 070532
TAFMSO
TAF
KMSO 070532Z 0706/0806 34006KT P6SM OVC060
     FM071200 VRB03KT P6SM VCFG SCT005 BKN050
     FM071800 VRB03KT P6SM SCT050 BKN100=



000
FTUS45 KMSO 070532
TAFSMN
TAF
KSMN 070532Z 0706/0806 VRB05KT P6SM OVC110
     FM071200 00000KT P6SM SCT150
      AMD LTD TO CLD VIS AND WIND=



000
FTUS45 KMSO 070532
TAFBTM
TAF
KBTM 070532Z 0706/0806 34006KT P6SM OVC060
     FM071200 VRB04KT P6SM SCT050 BKN120
     FM071800 35005KT P6SM BKN150=



000
FTUS45 KMSO 070532
TAFGPI
TAF
KGPI 070532Z 0706/0806 17005KT P6SM FEW080
     FM071000 19003KT P6SM VCFG SCT005 OVC100
     FM071800 19003KT P6SM BKN050=



000
FTUS45 KMSO 070022 AAA
TAFGPI
TAF AMD
KGPI 070022Z 0700/0724 26008KT P6SM BKN120
     FM071000 19003KT P6SM VCFG SCT005=



000
FTUS45 KMSO 070022 AAA
TAFGPI
TAF AMD
KGPI 070022Z 0700/0724 26008KT P6SM BKN120
     FM071000 19003KT P6SM VCFG SCT005=



000
FTUS45 KMSO 062324
TAFGPI
TAF
KGPI 062324Z 0700/0724 27015G25KT P6SM BKN060
     FM070100 21010KT P6SM SCT005 OVC050
     FM071000 19003KT P6SM VCFG SCT005=



000
FTUS45 KMSO 062324
TAFGPI
TAF
KGPI 062324Z 0700/0724 27015G25KT P6SM BKN060
     FM070100 21010KT P6SM SCT005 OVC050
     FM071000 19003KT P6SM VCFG SCT005=



000
FTUS45 KMSO 062324
TAFSMN
TAF
KSMN 062324Z 0700/0724 VRB05KT P6SM SCT060 BKN100
      AMD LTD TO CLD VIS AND WIND=



000
FTUS45 KMSO 062324
TAFMSO
TAF
KMSO 062324Z 0700/0724 31008KT P6SM VCSH OVC060
     FM071500 VRB03KT P6SM VCFG SCT005 BKN050=



000
FTUS45 KMSO 062324
TAFBTM
TAF
KBTM 062324Z 0700/0724 29020G30KT P6SM BKN080
     FM070200 27008KT P6SM BKN100=



000
FTUS45 KMSO 062324
TAFBTM
TAF
KBTM 062324Z 0700/0724 29020G30KT P6SM BKN080
     FM070200 27008KT P6SM BKN100=



000
FTUS45 KMSO 062324
TAFMSO
TAF
KMSO 062324Z 0700/0724 31008KT P6SM VCSH OVC060
     FM071500 VRB03KT P6SM VCFG SCT005 BKN050=



000
FTUS45 KMSO 062324
TAFSMN
TAF
KSMN 062324Z 0700/0724 VRB05KT P6SM SCT060 BKN100
      AMD LTD TO CLD VIS AND WIND=



000
FTUS45 KMSO 062201 AAB
TAFMSO
TAF AMD
KMSO 062201Z 0622/0718 29011KT P6SM VCSH OVC050
     FM062300 30011G18KT P6SM VCSH OVC050
     FM070200 31008KT P6SM OVC080
     FM071500 VRB03KT P6SM VCFG SCT005 BKN040=



000
FTUS45 KMSO 062200 AAA
TAFGPI
TAF AMD
KGPI 062200Z 0622/0718 23015G25KT P6SM VCSH BKN060
     FM070000 21012KT P6SM VCSH SCT005 OVC050
     FM070500 19003KT P6SM VCFG SCT005=



000
FTUS45 KMSO 061925 AAB
TAFBTM
TAF AMD
KBTM 061925Z 0619/0718 32015G25KT P6SM VCSH FEW010 BKN035 OVC050
     FM062200 29015G25KT P6SM VCSH BKN050
     FM070300 27008KT P6SM BKN090=



000
FTUS45 KMSO 061925 AAB
TAFBTM
TAF AMD
KBTM 061925Z 0619/0718 32015G25KT P6SM VCSH FEW010 BKN035 OVC050
     FM062200 29015G25KT P6SM VCSH BKN050
     FM070300 27008KT P6SM BKN090=



000
FTUS45 KMSO 061752 AAA
TAFBTM
TAF AMD
KBTM 061752Z 0618/0718 32015G25KT 4SM -SHSN BR FEW005 BKN035 OVC050
      TEMPO 0618/0622 1SM -SHSN BR BKN005
     FM062200 29015G25KT P6SM VCSH BKN050
     FM070300 27008KT P6SM BKN090=



000
FTUS45 KMSO 061752 AAA
TAFBTM
TAF AMD
KBTM 061752Z 0618/0718 32015G25KT 4SM -SHSN BR FEW005 BKN035 OVC050
      TEMPO 0618/0622 1SM -SHSN BR BKN005
     FM062200 29015G25KT P6SM VCSH BKN050
     FM070300 27008KT P6SM BKN090=



000
FTUS45 KMSO 061724
TAFMSO
TAF
KMSO 061724Z 0618/0718 29011KT P6SM VCSH OVC050
      TEMPO 0619/0623 28017KT 5SM -SHSN BR OVC030
     FM062300 30011G18KT P6SM VCSH OVC050
     FM070200 31008KT P6SM OVC080
     FM071500 VRB03KT P6SM VCFG SCT005 BKN040=



000
FTUS45 KMSO 061724
TAFBTM
TAF
KBTM 061724Z 0618/0718 29015G25KT 5SM -SHSN BR BKN035 OVC050
     FM062200 29015G25KT P6SM VCSH BKN050
     FM070300 27008KT P6SM BKN090=



000
FTUS45 KMSO 061724
TAFGPI
TAF
KGPI 061724Z 0618/0718 21016G25KT P6SM VCSH BKN050
     FM070000 21012KT P6SM VCSH SCT005 OVC040
     FM070500 19003KT P6SM VCFG SCT005=



000
FTUS45 KMSO 061724
TAFSMN
TAF
KSMN 061724Z 0618/0718 VRB04KT P6SM BKN080
     FM062200 29011KT P6SM BKN060
     FM070300 VRB03KT P6SM SCT100
     FM071200 00000KT 5SM BR SCT004 SCT100
      AMD LTD TO CLD VIS AND WIND=



000
FTUS45 KMSO 061724
TAFBTM
TAF
KBTM 061724Z 0618/0718 29015G25KT 5SM -SHSN BR BKN035 OVC050
     FM062200 29015G25KT P6SM VCSH BKN050
     FM070300 27008KT P6SM BKN090=



000
FTUS45 KMSO 061724
TAFGPI
TAF
KGPI 061724Z 0618/0718 21016G25KT P6SM VCSH BKN050
     FM070000 21012KT P6SM VCSH SCT005 OVC040
     FM070500 19003KT P6SM VCFG SCT005=



000
FTUS45 KMSO 061724
TAFMSO
TAF
KMSO 061724Z 0618/0718 29011KT P6SM VCSH OVC050
      TEMPO 0619/0623 28017KT 5SM -SHSN BR OVC030
     FM062300 30011G18KT P6SM VCSH OVC050
     FM070200 31008KT P6SM OVC080
     FM071500 VRB03KT P6SM VCFG SCT005 BKN040=



000
FTUS45 KMSO 061724
TAFSMN
TAF
KSMN 061724Z 0618/0718 VRB04KT P6SM BKN080
     FM062200 29011KT P6SM BKN060
     FM070300 VRB03KT P6SM SCT100
     FM071200 00000KT 5SM BR SCT004 SCT100
      AMD LTD TO CLD VIS AND WIND=



000
FTUS45 KMSO 061255 AAA
TAFMSO
TAF AMD
KMSO 061255Z 0613/0712 32012G20KT P6SM VCSH BKN060
     FM061600 29012KT P6SM VCSH OVC050
      TEMPO 0619/0622 28017KT 5SM -SN BR OVC030
     FM062200 30011G18KT P6SM VCSH OVC050
     FM070200 31008KT P6SM OVC100=



000
FTUS45 KMSO 061123
TAFBTM
TAF
KBTM 061123Z 0612/0712 23010G15KT P6SM SCT070
     FM061600 28015G25KT P6SM BKN100
     FM070300 29008KT P6SM BKN090=



000
FTUS45 KMSO 061123
TAFMSO
TAF
KMSO 061123Z 0612/0712 36003KT P6SM VCSH BKN060
     FM061600 19012KT P6SM VCSH OVC050
      TEMPO 0619/0622 28017KT 5SM -SN BR OVC030
     FM062200 30011G18KT P6SM VCSH OVC050
     FM070200 31008KT P6SM OVC100=



000
FTUS45 KMSO 061123
TAFGPI
TAF
KGPI 061123Z 0612/0712 25012G18KT P6SM -RA OVC030
     FM061600 20015G22KT P6SM -RASN OVC050
     FM070000 21012KT P6SM VCSH SCT005 OVC040
     FM070500 19003KT P6SM VCFG SCT005=



000
FTUS45 KMSO 061123
TAFSMN
TAF
KSMN 061123Z 0612/0712 VRB04KT P6SM BKN110
     FM062200 29012KT P6SM OVC090
     FM070300 VRB03KT P6SM BKN090
      AMD LTD TO CLD VIS AND WIND=



000
FTUS45 KMSO 061123
TAFMSO
TAF
KMSO 061123Z 0612/0712 36003KT P6SM VCSH BKN060
     FM061600 19012KT P6SM VCSH OVC050
      TEMPO 0619/0622 28017KT 5SM -SN BR OVC030
     FM062200 30011G18KT P6SM VCSH OVC050
     FM070200 31008KT P6SM OVC100=



000
FTUS45 KMSO 061123
TAFGPI
TAF
KGPI 061123Z 0612/0712 25012G18KT P6SM -RA OVC030
     FM061600 20015G22KT P6SM -RASN OVC050
     FM070000 21012KT P6SM VCSH SCT005 OVC040
     FM070500 19003KT P6SM VCFG SCT005=



000
FTUS45 KMSO 061123
TAFSMN
TAF
KSMN 061123Z 0612/0712 VRB04KT P6SM BKN110
     FM062200 29012KT P6SM OVC090
     FM070300 VRB03KT P6SM BKN090
      AMD LTD TO CLD VIS AND WIND=



000
FTUS45 KMSO 061123
TAFBTM
TAF
KBTM 061123Z 0612/0712 23010G15KT P6SM SCT070
     FM061600 28015G25KT P6SM BKN100
     FM070300 29008KT P6SM BKN090=



000
FTUS45 KMSO 060520
TAFMSO
TAF
KMSO 060520Z 0606/0706 36003KT P6SM SKC
     FM061600 19012KT P6SM VCSH OVC050
     FM062000 28017KT P6SM OVC050
     FM070400 VRB03KT P6SM OVC050=



000
FTUS45 KMSO 060520
TAFGPI
TAF
KGPI 060520Z 0606/0706 24005KT P6SM BKN100
     FM061000 18010KT P6SM -SHSN BKN040 OVC100
     FM061500 20015G20KT P6SM VCSH OVC060
     FM070000 23012KT P6SM SCT005 OVC040
     FM070500 19003KT P6SM VCFG SCT005=



000
FTUS45 KMSO 060520
TAFSMN
TAF
KSMN 060520Z 0606/0706 VRB04KT P6SM SCT100
     FM062200 29012KT P6SM OVC090
     FM070300 VRB03KT P6SM BKN090
      AMD LTD TO CLD VIS AND WIND=



000
FTUS45 KMSO 060520
TAFBTM
TAF
KBTM 060520Z 0606/0706 31008KT P6SM SCT150
     FM061800 28015G20KT P6SM BKN100
     FM070300 29008KT P6SM BKN090=



000
FTUS45 KMSO 052320
TAFMSO
TAF
KMSO 052320Z 0600/0624 25003KT P6SM OVC100
     FM061600 19012KT P6SM VCSH OVC050
     FM062000 28017KT P6SM OVC050=



000
FTUS45 KMSO 052320
TAFGPI
TAF
KGPI 052320Z 0600/0624 17007KT P6SM OVC040
     FM061000 18010KT P6SM -SHSN OVC040
     FM061500 20015G20KT P6SM VCSH OVC060
     FM062300 23012KT P6SM SCT005 OVC040=



000
FTUS45 KMSO 052320
TAFSMN
TAF
KSMN 052320Z 0600/0624 VRB05KT P6SM SCT150
      AMD LTD TO CLD VIS AND WIND=



000
FTUS45 KMSO 052320
TAFGPI
TAF
KGPI 052320Z 0600/0624 17007KT P6SM OVC040
     FM061000 18010KT P6SM -SHSN OVC040
     FM061500 20015G20KT P6SM VCSH OVC060
     FM062300 23012KT P6SM SCT005 OVC040=



000
FTUS45 KMSO 052320
TAFBTM
TAF
KBTM 052320Z 0600/0624 26004KT P6SM SCT150
     FM061800 28015G20KT P6SM BKN100=



000
FTUS45 KMSO 052320
TAFBTM
TAF
KBTM 052320Z 0600/0624 26004KT P6SM SCT150
     FM061800 28015G20KT P6SM BKN100=



000
FTUS45 KMSO 052320
TAFSMN
TAF
KSMN 052320Z 0600/0624 VRB05KT P6SM SCT150
      AMD LTD TO CLD VIS AND WIND=



000
FTUS45 KMSO 052320
TAFMSO
TAF
KMSO 052320Z 0600/0624 25003KT P6SM OVC100
     FM061600 19012KT P6SM VCSH OVC050
     FM062000 28017KT P6SM OVC050=



000
FTUS45 KMSO 051732
TAFGPI
TAF
KGPI 051732Z 0518/0618 18007KT P6SM OVC035
     FM052100 17005KT P6SM OVC090
     FM060700 18010KT P6SM VCSH BKN050=



000
FTUS45 KMSO 051732
TAFMSO
TAF
KMSO 051732Z 0518/0618 30006KT P6SM BKN050
     FM060900 19009KT P6SM VCSH OVC050=



000
FTUS45 KMSO 051732
TAFBTM
TAF
KBTM 051732Z 0518/0618 VRB03KT P6SM BKN050=



000
FTUS45 KMSO 051732
TAFSMN
TAF
KSMN 051732Z 0518/0618 VRB03KT P6SM OVC050
     FM052100 VRB03KT P6SM OVC100
      AMD LTD TO CLD VIS AND WIND=



000
FTUS45 KMSO 051120
TAFMSO
TAF
KMSO 051120Z 0512/0612 00000KT 5SM BR SCT050
     FM051800 30006KT P6SM BKN050
     FM060900 25009KT P6SM VCSH OVC050=



000
FTUS45 KMSO 051120
TAFBTM
TAF
KBTM 051120Z 0512/0612 VRB03KT P6SM BKN120=



000
FTUS45 KMSO 051120
TAFSMN
TAF
KSMN 051120Z 0512/0612 VRB03KT P6SM OVC050
     FM051700 VRB03KT P6SM OVC100
      AMD LTD TO CLD VIS AND WIND=



000
FTUS45 KMSO 051120
TAFGPI
TAF
KGPI 051120Z 0512/0612 17008KT P6SM VCFG SCT070
     FM051600 18007KT P6SM VCSH OVC050
     FM052100 17005KT P6SM OVC090=



000
FTUS45 KMSO 051120
TAFMSO
TAF
KMSO 051120Z 0512/0612 00000KT 5SM BR SCT050
     FM051800 30006KT P6SM BKN050
     FM060900 25009KT P6SM VCSH OVC050=



000
FTUS45 KMSO 051120
TAFBTM
TAF
KBTM 051120Z 0512/0612 VRB03KT P6SM BKN120=



000
FTUS45 KMSO 051120
TAFSMN
TAF
KSMN 051120Z 0512/0612 VRB03KT P6SM OVC050
     FM051700 VRB03KT P6SM OVC100
      AMD LTD TO CLD VIS AND WIND=



000
FTUS45 KMSO 051120
TAFGPI
TAF
KGPI 051120Z 0512/0612 17008KT P6SM VCFG SCT070
     FM051600 18007KT P6SM VCSH OVC050
     FM052100 17005KT P6SM OVC090=



000
FTUS45 KMSO 050520
TAFGPI
TAF
KGPI 050520Z 0506/0606 20007KT P6SM OVC060
     FM051200 VRB03KT P6SM VCFG BKN050
     FM051600 18007KT P6SM OVC060=



000
FTUS45 KMSO 050520
TAFMSO
TAF
KMSO 050520Z 0506/0606 VRB04KT P6SM BKN050
     FM051200 VRB03KT P6SM VCFG BKN040
     FM051700 30006KT P6SM BKN070=



000
FTUS45 KMSO 050520
TAFSMN
TAF
KSMN 050520Z 0506/0606 VRB03KT P6SM OVC050
     FM051200 00000KT P6SM VCFG BKN070
     FM051700 VRB03KT P6SM OVC100
      AMD LTD TO CLD VIS AND WIND=



000
FTUS45 KMSO 050520
TAFBTM
TAF
KBTM 050520Z 0506/0606 32008KT P6SM OVC100=



000
FTUS45 KMSO 050520
TAFBTM
TAF
KBTM 050520Z 0506/0606 32008KT P6SM OVC100=



000
FTUS45 KMSO 050520
TAFMSO
TAF
KMSO 050520Z 0506/0606 VRB04KT P6SM BKN050
     FM051200 VRB03KT P6SM VCFG BKN040
     FM051700 30006KT P6SM BKN070=



000
FTUS45 KMSO 050520
TAFGPI
TAF
KGPI 050520Z 0506/0606 20007KT P6SM OVC060
     FM051200 VRB03KT P6SM VCFG BKN050
     FM051600 18007KT P6SM OVC060=



000
FTUS45 KMSO 050520
TAFSMN
TAF
KSMN 050520Z 0506/0606 VRB03KT P6SM OVC050
     FM051200 00000KT P6SM VCFG BKN070
     FM051700 VRB03KT P6SM OVC100
      AMD LTD TO CLD VIS AND WIND=



000
FTUS45 KMSO 042323
TAFGPI
TAF
KGPI 042323Z 0500/0524 20007KT P6SM OVC060
     FM051200 VRB03KT P6SM VCFG BKN050
     FM051700 18007KT P6SM OVC060=



000
FTUS45 KMSO 042323
TAFSMN
TAF
KSMN 042323Z 0500/0524 VRB03KT P6SM OVC050
     FM051200 VRB03KT P6SM VCFG BKN070
      AMD LTD TO CLD VIS AND WIND=



000
FTUS45 KMSO 042323
TAFBTM
TAF
KBTM 042323Z 0500/0524 29010KT P6SM OVC050
     FM050200 32008KT P6SM OVC100=



000
FTUS45 KMSO 042323
TAFMSO
TAF
KMSO 042323Z 0500/0524 VRB05KT P6SM VCSH OVC050
     FM050300 VRB04KT P6SM BKN050
     FM051200 VRB03KT P6SM VCFG BKN040
     FM051700 30006KT P6SM BKN070=



000
FTUS45 KMSO 042323
TAFGPI
TAF
KGPI 042323Z 0500/0524 20007KT P6SM OVC060
     FM051200 VRB03KT P6SM VCFG BKN050
     FM051700 18007KT P6SM OVC060=



000
FTUS45 KMSO 042323
TAFMSO
TAF
KMSO 042323Z 0500/0524 VRB05KT P6SM VCSH OVC050
     FM050300 VRB04KT P6SM BKN050
     FM051200 VRB03KT P6SM VCFG BKN040
     FM051700 30006KT P6SM BKN070=



000
FTUS45 KMSO 042323
TAFSMN
TAF
KSMN 042323Z 0500/0524 VRB03KT P6SM OVC050
     FM051200 VRB03KT P6SM VCFG BKN070
      AMD LTD TO CLD VIS AND WIND=



000
FTUS45 KMSO 042323
TAFBTM
TAF
KBTM 042323Z 0500/0524 29010KT P6SM OVC050
     FM050200 32008KT P6SM OVC100=



000
FTUS45 KMSO 041828 AAA
TAFSMN
TAF AMD
KSMN 041828Z 0418/0518 VRB03KT 6SM BR VCSH BKN050
      TEMPO 0418/0420 2SM -SN BKN015
     FM050000 30005KT P6SM OVC080
      AMD LTD TO CLD VIS AND WIND=



000
FTUS45 KMSO 041828 AAA
TAFSMN
TAF AMD
KSMN 041828Z 0418/0518 VRB03KT 6SM BR VCSH BKN050
      TEMPO 0418/0420 2SM -SN BKN015
     FM050000 30005KT P6SM OVC080
      AMD LTD TO CLD VIS AND WIND=



000
FTUS45 KMSO 041722
TAFBTM
TAF
KBTM 041722Z 0418/0518 00000KT P6SM VCSH BKN040 OVC080
     FM042100 29010KT P6SM -SHSN OVC060
     FM050200 32008KT P6SM OVC100=



000
FTUS45 KMSO 041722
TAFSMN
TAF
KSMN 041722Z 0418/0518 VRB03KT P6SM VCSH BKN050
     FM050000 30005KT P6SM OVC080
      AMD LTD TO CLD VIS AND WIND=



000
FTUS45 KMSO 041722
TAFMSO
TAF
KMSO 041722Z 0418/0518 VRB02KT 4SM BR VCSH SCT025 OVC050
     FM041900 VRB05KT P6SM VCSH OVC050
     FM050100 VRB04KT P6SM BKN050=



000
FTUS45 KMSO 041722
TAFGPI
TAF
KGPI 041722Z 0418/0518 00000KT P6SM VCSH BKN050
     FM041900 20007KT P6SM VCSH BKN035
     FM050300 00000KT 6SM BR SCT001 BKN080=



000
FTUS45 KMSO 041722
TAFGPI
TAF
KGPI 041722Z 0418/0518 00000KT P6SM VCSH BKN050
     FM041900 20007KT P6SM VCSH BKN035
     FM050300 00000KT 6SM BR SCT001 BKN080=



000
FTUS45 KMSO 041722
TAFBTM
TAF
KBTM 041722Z 0418/0518 00000KT P6SM VCSH BKN040 OVC080
     FM042100 29010KT P6SM -SHSN OVC060
     FM050200 32008KT P6SM OVC100=



000
FTUS45 KMSO 041722
TAFMSO
TAF
KMSO 041722Z 0418/0518 VRB02KT 4SM BR VCSH SCT025 OVC050
     FM041900 VRB05KT P6SM VCSH OVC050
     FM050100 VRB04KT P6SM BKN050=



000
FTUS45 KMSO 041722
TAFSMN
TAF
KSMN 041722Z 0418/0518 VRB03KT P6SM VCSH BKN050
     FM050000 30005KT P6SM OVC080
      AMD LTD TO CLD VIS AND WIND=



000
FTUS45 KMSO 041556 AAB
TAFMSO
TAF AMD
KMSO 041556Z 0416/0512 VRB02KT 4SM BR VCSH SCT025 OVC050
      TEMPO 0416/0418 1SM BR
     FM041900 VRB05KT P6SM VCSH OVC050=



000
FTUS45 KMSO 041556 AAB
TAFMSO
TAF AMD
KMSO 041556Z 0416/0512 VRB02KT 4SM BR VCSH SCT025 OVC050
      TEMPO 0416/0418 1SM BR
     FM041900 VRB05KT P6SM VCSH OVC050=



000
FTUS45 KMSO 041456 AAA
TAFGPI
TAF AMD
KGPI 041456Z 0415/0512 00000KT 6SM BR VCSH BKN035
     FM041700 20007KT P6SM VCSH BKN035
     FM050300 00000KT 6SM BR SCT001 BKN080=



    US Dept of Commerce
    National Oceanic and Atmospheric Administration
    National Weather Service
    1325 East West Highway
    Silver Spring, MD 20910
    Page Author: NWS Internet Services Team
Disclaimer
Information Quality
Credits
Glossary
Privacy Policy
Freedom of Information Act (FOIA)
About Us
Career Opportunities